sensor_id;sensor_type;location;lat;lon;timestamp;pressure;altitude;pressure_sealevel;temperature;humidity
84522;BME280;74758;50.066;20.008;2024-03-22T00:00:42;99444.04;;;10.64;47.82
84522;BME280;74758;50.066;20.008;2024-03-22T00:01:45;99442.70;;;10.64;47.64
84522;BME280;74758;50.066;20.008;2024-03-22T00:02:46;99443.50;;;10.63;47.60
84522;BME280;74758;50.066;20.008;2024-03-22T00:03:48;99443.25;;;10.62;47.54
84522;BME280;74758;50.066;20.008;2024-03-22T00:04:49;99443.80;;;10.61;47.45
84522;BME280;74758;50.066;20.008;2024-03-22T00:05:51;99442.30;;;10.60;47.45
84522;BME280;74758;50.066;20.008;2024-03-22T00:06:52;99440.67;;;10.59;47.54
84522;BME280;74758;50.066;20.008;2024-03-22T00:07:54;99441.84;;;10.57;47.43
84522;BME280;74758;50.066;20.008;2024-03-22T00:08:55;99438.29;;;10.56;47.37
84522;BME280;74758;50.066;20.008;2024-03-22T00:09:57;99440.28;;;10.55;47.38
84522;BME280;74758;50.066;20.008;2024-03-22T00:10:58;99437.61;;;10.54;47.50
84522;BME280;74758;50.066;20.008;2024-03-22T00:11:59;99436.64;;;10.53;47.23
84522;BME280;74758;50.066;20.008;2024-03-22T00:13:01;99436.69;;;10.52;47.48
84522;BME280;74758;50.066;20.008;2024-03-22T00:14:03;99436.38;;;10.52;47.37
84522;BME280;74758;50.066;20.008;2024-03-22T00:15:05;99437.86;;;10.51;47.47
84522;BME280;74758;50.066;20.008;2024-03-22T00:16:07;99437.10;;;10.49;47.51
84522;BME280;74758;50.066;20.008;2024-03-22T00:17:08;99439.02;;;10.47;47.57
84522;BME280;74758;50.066;20.008;2024-03-22T00:18:10;99435.83;;;10.45;47.70
84522;BME280;74758;50.066;20.008;2024-03-22T00:19:11;99437.55;;;10.44;47.57
84522;BME280;74758;50.066;20.008;2024-03-22T00:20:13;99436.66;;;10.42;47.87
84522;BME280;74758;50.066;20.008;2024-03-22T00:21:14;99433.52;;;10.42;47.83
84522;BME280;74758;50.066;20.008;2024-03-22T00:22:16;99432.16;;;10.41;47.64
84522;BME280;74758;50.066;20.008;2024-03-22T00:23:17;99436.20;;;10.41;47.69
84522;BME280;74758;50.066;20.008;2024-03-22T00:24:19;99434.27;;;10.39;47.97
84522;BME280;74758;50.066;20.008;2024-03-22T00:25:20;99433.91;;;10.37;47.99
84522;BME280;74758;50.066;20.008;2024-03-22T00:26:22;99436.24;;;10.36;47.94
84522;BME280;74758;50.066;20.008;2024-03-22T00:27:23;99436.33;;;10.36;48.05
84522;BME280;74758;50.066;20.008;2024-03-22T00:28:25;99438.60;;;10.36;48.33
84522;BME280;74758;50.066;20.008;2024-03-22T00:29:26;99433.30;;;10.36;48.05
84522;BME280;74758;50.066;20.008;2024-03-22T00:30:28;99434.68;;;10.36;47.96
84522;BME280;74758;50.066;20.008;2024-03-22T00:31:29;99435.24;;;10.36;48.18
84522;BME280;74758;50.066;20.008;2024-03-22T00:32:31;99438.73;;;10.36;48.30
84522;BME280;74758;50.066;20.008;2024-03-22T00:33:32;99434.86;;;10.36;48.52
84522;BME280;74758;50.066;20.008;2024-03-22T00:34:34;99433.88;;;10.37;48.56
84522;BME280;74758;50.066;20.008;2024-03-22T00:35:36;99432.38;;;10.39;48.50
84522;BME280;74758;50.066;20.008;2024-03-22T00:36:37;99429.48;;;10.40;48.42
84522;BME280;74758;50.066;20.008;2024-03-22T00:37:39;99431.40;;;10.40;48.39
84522;BME280;74758;50.066;20.008;2024-03-22T00:38:40;99429.48;;;10.40;48.42
84522;BME280;74758;50.066;20.008;2024-03-22T00:39:41;99432.09;;;10.40;48.52
84522;BME280;74758;50.066;20.008;2024-03-22T00:40:43;99428.61;;;10.39;48.39
84522;BME280;74758;50.066;20.008;2024-03-22T00:41:44;99432.50;;;10.39;48.15
84522;BME280;74758;50.066;20.008;2024-03-22T00:42:46;99433.20;;;10.39;48.28
84522;BME280;74758;50.066;20.008;2024-03-22T00:43:47;99430.45;;;10.38;48.27
84522;BME280;74758;50.066;20.008;2024-03-22T00:44:49;99434.70;;;10.38;48.50
84522;BME280;74758;50.066;20.008;2024-03-22T00:45:50;99431.95;;;10.38;48.35
84522;BME280;74758;50.066;20.008;2024-03-22T00:46:52;99429.61;;;10.38;48.60
84522;BME280;74758;50.066;20.008;2024-03-22T00:47:53;99430.70;;;10.38;48.51
84522;BME280;74758;50.066;20.008;2024-03-22T00:48:55;99431.39;;;10.38;48.27
84522;BME280;74758;50.066;20.008;2024-03-22T00:49:56;99428.06;;;10.38;48.41
84522;BME280;74758;50.066;20.008;2024-03-22T00:50:57;99429.64;;;10.38;48.55
84522;BME280;74758;50.066;20.008;2024-03-22T00:51:59;99430.53;;;10.37;48.43
84522;BME280;74758;50.066;20.008;2024-03-22T00:53:00;99429.51;;;10.37;48.45
84522;BME280;74758;50.066;20.008;2024-03-22T00:54:04;99429.50;;;10.37;48.33
84522;BME280;74758;50.066;20.008;2024-03-22T00:55:06;99430.04;;;10.37;48.56
84522;BME280;74758;50.066;20.008;2024-03-22T00:56:07;99430.95;;;10.37;48.61
84522;BME280;74758;50.066;20.008;2024-03-22T00:57:09;99432.03;;;10.36;48.78
84522;BME280;74758;50.066;20.008;2024-03-22T00:58:10;99433.94;;;10.37;48.81
84522;BME280;74758;50.066;20.008;2024-03-22T00:59:12;99430.92;;;10.37;48.86
84522;BME280;74758;50.066;20.008;2024-03-22T01:00:14;99431.61;;;10.37;48.73
84522;BME280;74758;50.066;20.008;2024-03-22T01:01:16;99427.17;;;10.38;48.95
84522;BME280;74758;50.066;20.008;2024-03-22T01:02:18;99429.98;;;10.38;48.75
84522;BME280;74758;50.066;20.008;2024-03-22T01:03:20;99431.17;;;10.38;48.78
84522;BME280;74758;50.066;20.008;2024-03-22T01:04:22;99428.73;;;10.38;48.74
84522;BME280;74758;50.066;20.008;2024-03-22T01:05:23;99425.69;;;10.39;48.87
84522;BME280;74758;50.066;20.008;2024-03-22T01:06:25;99424.79;;;10.39;49.12
84522;BME280;74758;50.066;20.008;2024-03-22T01:07:28;99425.26;;;10.40;49.10
84522;BME280;74758;50.066;20.008;2024-03-22T01:08:29;99424.02;;;10.40;49.19
84522;BME280;74758;50.066;20.008;2024-03-22T01:09:31;99423.62;;;10.40;49.05
84522;BME280;74758;50.066;20.008;2024-03-22T01:10:33;99422.44;;;10.40;49.28
84522;BME280;74758;50.066;20.008;2024-03-22T01:11:35;99424.48;;;10.41;49.03
84522;BME280;74758;50.066;20.008;2024-03-22T01:12:37;99423.14;;;10.40;49.41
84522;BME280;74758;50.066;20.008;2024-03-22T01:13:39;99422.14;;;10.39;49.18
84522;BME280;74758;50.066;20.008;2024-03-22T01:14:40;99420.70;;;10.39;49.24
84522;BME280;74758;50.066;20.008;2024-03-22T01:15:42;99424.08;;;10.39;49.31
84522;BME280;74758;50.066;20.008;2024-03-22T01:16:44;99420.98;;;10.38;49.42
84522;BME280;74758;50.066;20.008;2024-03-22T01:17:45;99418.23;;;10.37;49.41
84522;BME280;74758;50.066;20.008;2024-03-22T01:18:47;99419.71;;;10.37;49.54
84522;BME280;74758;50.066;20.008;2024-03-22T01:19:50;99418.01;;;10.36;49.60
84522;BME280;74758;50.066;20.008;2024-03-22T01:20:52;99420.88;;;10.35;49.50
84522;BME280;74758;50.066;20.008;2024-03-22T01:21:53;99418.17;;;10.34;49.69
84522;BME280;74758;50.066;20.008;2024-03-22T01:22:54;99420.94;;;10.33;49.87
84522;BME280;74758;50.066;20.008;2024-03-22T01:23:56;99417.52;;;10.32;49.75
84522;BME280;74758;50.066;20.008;2024-03-22T01:24:57;99418.52;;;10.30;49.73
84522;BME280;74758;50.066;20.008;2024-03-22T01:25:59;99415.72;;;10.30;49.73
84522;BME280;74758;50.066;20.008;2024-03-22T01:27:00;99416.30;;;10.29;50.00
84522;BME280;74758;50.066;20.008;2024-03-22T01:28:02;99417.70;;;10.30;49.90
84522;BME280;74758;50.066;20.008;2024-03-22T01:29:05;99420.20;;;10.29;49.96
84522;BME280;74758;50.066;20.008;2024-03-22T01:30:07;99416.02;;;10.29;50.07
84522;BME280;74758;50.066;20.008;2024-03-22T01:31:09;99418.23;;;10.29;50.20
84522;BME280;74758;50.066;20.008;2024-03-22T01:32:11;99418.08;;;10.29;50.13
84522;BME280;74758;50.066;20.008;2024-03-22T01:33:12;99413.45;;;10.30;50.25
84522;BME280;74758;50.066;20.008;2024-03-22T01:34:14;99417.05;;;10.31;50.21
84522;BME280;74758;50.066;20.008;2024-03-22T01:35:16;99414.77;;;10.31;50.46
84522;BME280;74758;50.066;20.008;2024-03-22T01:36:17;99414.94;;;10.31;50.65
84522;BME280;74758;50.066;20.008;2024-03-22T01:37:19;99416.48;;;10.32;50.55
84522;BME280;74758;50.066;20.008;2024-03-22T01:38:20;99413.14;;;10.32;50.35
84522;BME280;74758;50.066;20.008;2024-03-22T01:39:22;99410.65;;;10.32;50.64
84522;BME280;74758;50.066;20.008;2024-03-22T01:40:23;99414.58;;;10.31;50.72
84522;BME280;74758;50.066;20.008;2024-03-22T01:41:27;99411.09;;;10.31;50.96
84522;BME280;74758;50.066;20.008;2024-03-22T01:42:28;99410.84;;;10.30;50.79
84522;BME280;74758;50.066;20.008;2024-03-22T01:43:30;99410.52;;;10.29;51.04
84522;BME280;74758;50.066;20.008;2024-03-22T01:44:32;99404.67;;;10.28;50.86
84522;BME280;74758;50.066;20.008;2024-03-22T01:45:35;99406.52;;;10.27;51.24
84522;BME280;74758;50.066;20.008;2024-03-22T01:46:38;99403.13;;;10.25;51.27
84522;BME280;74758;50.066;20.008;2024-03-22T01:47:39;99403.35;;;10.25;51.48
84522;BME280;74758;50.066;20.008;2024-03-22T01:48:41;99400.80;;;10.24;51.57
84522;BME280;74758;50.066;20.008;2024-03-22T01:49:43;99402.43;;;10.23;51.45
84522;BME280;74758;50.066;20.008;2024-03-22T01:50:45;99404.70;;;10.24;51.76
84522;BME280;74758;50.066;20.008;2024-03-22T01:51:46;99404.11;;;10.22;51.68
84522;BME280;74758;50.066;20.008;2024-03-22T01:52:49;99409.16;;;10.23;51.75
84522;BME280;74758;50.066;20.008;2024-03-22T01:53:51;99407.30;;;10.22;51.81
84522;BME280;74758;50.066;20.008;2024-03-22T01:54:54;99404.52;;;10.22;51.83
84522;BME280;74758;50.066;20.008;2024-03-22T01:55:55;99410.16;;;10.21;52.03
84522;BME280;74758;50.066;20.008;2024-03-22T01:56:57;99409.75;;;10.22;52.09
84522;BME280;74758;50.066;20.008;2024-03-22T01:57:59;99411.67;;;10.24;52.17
84522;BME280;74758;50.066;20.008;2024-03-22T01:59:01;99414.20;;;10.26;52.25
84522;BME280;74758;50.066;20.008;2024-03-22T02:00:02;99413.45;;;10.26;52.22
84522;BME280;74758;50.066;20.008;2024-03-22T02:01:04;99413.51;;;10.27;52.24
84522;BME280;74758;50.066;20.008;2024-03-22T02:02:06;99412.27;;;10.28;52.44
84522;BME280;74758;50.066;20.008;2024-03-22T02:03:08;99412.73;;;10.28;52.46
84522;BME280;74758;50.066;20.008;2024-03-22T02:04:09;99417.69;;;10.30;52.33
84522;BME280;74758;50.066;20.008;2024-03-22T02:05:15;99418.41;;;10.30;52.48
84522;BME280;74758;50.066;20.008;2024-03-22T02:06:17;99417.28;;;10.30;52.49
84522;BME280;74758;50.066;20.008;2024-03-22T02:07:20;99416.02;;;10.31;52.66
84522;BME280;74758;50.066;20.008;2024-03-22T02:08:21;99416.08;;;10.30;52.57
84522;BME280;74758;50.066;20.008;2024-03-22T02:09:23;99418.58;;;10.32;52.60
84522;BME280;74758;50.066;20.008;2024-03-22T02:10:25;99417.84;;;10.32;52.66
84522;BME280;74758;50.066;20.008;2024-03-22T02:11:27;99418.69;;;10.32;52.80
84522;BME280;74758;50.066;20.008;2024-03-22T02:12:30;99418.98;;;10.33;52.71
84522;BME280;74758;50.066;20.008;2024-03-22T02:13:31;99417.55;;;10.33;52.84
84522;BME280;74758;50.066;20.008;2024-03-22T02:14:33;99420.67;;;10.34;52.67
84522;BME280;74758;50.066;20.008;2024-03-22T02:15:34;99417.65;;;10.34;53.03
84522;BME280;74758;50.066;20.008;2024-03-22T02:16:36;99417.29;;;10.34;52.83
84522;BME280;74758;50.066;20.008;2024-03-22T02:17:37;99414.63;;;10.35;53.02
84522;BME280;74758;50.066;20.008;2024-03-22T02:18:39;99419.82;;;10.36;52.75
84522;BME280;74758;50.066;20.008;2024-03-22T02:19:40;99416.77;;;10.36;53.06
84522;BME280;74758;50.066;20.008;2024-03-22T02:20:41;99418.27;;;10.37;53.12
84522;BME280;74758;50.066;20.008;2024-03-22T02:21:43;99416.39;;;10.39;53.35
84522;BME280;74758;50.066;20.008;2024-03-22T02:22:44;99417.61;;;10.39;53.14
84522;BME280;74758;50.066;20.008;2024-03-22T02:23:46;99418.08;;;10.39;53.11
84522;BME280;74758;50.066;20.008;2024-03-22T02:24:47;99418.54;;;10.40;53.24
84522;BME280;74758;50.066;20.008;2024-03-22T02:25:49;99418.61;;;10.39;52.99
84522;BME280;74758;50.066;20.008;2024-03-22T02:26:50;99417.52;;;10.40;53.18
84522;BME280;74758;50.066;20.008;2024-03-22T02:27:52;99418.27;;;10.39;53.32
84522;BME280;74758;50.066;20.008;2024-03-22T02:28:53;99422.35;;;10.39;53.42
84522;BME280;74758;50.066;20.008;2024-03-22T02:29:55;99418.85;;;10.39;53.60
84522;BME280;74758;50.066;20.008;2024-03-22T02:31:01;99419.63;;;10.38;53.88
84522;BME280;74758;50.066;20.008;2024-03-22T02:32:02;99419.18;;;10.37;54.09
84522;BME280;74758;50.066;20.008;2024-03-22T02:33:05;99416.58;;;10.37;54.15
84522;BME280;74758;50.066;20.008;2024-03-22T02:34:06;99418.38;;;10.36;54.24
84522;BME280;74758;50.066;20.008;2024-03-22T02:35:08;99418.21;;;10.36;54.39
84522;BME280;74758;50.066;20.008;2024-03-22T02:36:10;99417.48;;;10.36;54.55
84522;BME280;74758;50.066;20.008;2024-03-22T02:37:11;99421.34;;;10.36;54.54
84522;BME280;74758;50.066;20.008;2024-03-22T02:38:13;99420.84;;;10.36;54.65
84522;BME280;74758;50.066;20.008;2024-03-22T02:39:14;99418.46;;;10.37;54.80
84522;BME280;74758;50.066;20.008;2024-03-22T02:40:16;99418.44;;;10.37;54.98
84522;BME280;74758;50.066;20.008;2024-03-22T02:41:17;99419.41;;;10.38;54.54
84522;BME280;74758;50.066;20.008;2024-03-22T02:42:19;99421.08;;;10.39;54.93
84522;BME280;74758;50.066;20.008;2024-03-22T02:43:20;99422.48;;;10.39;54.97
84522;BME280;74758;50.066;20.008;2024-03-22T02:44:25;99421.77;;;10.39;54.97
84522;BME280;74758;50.066;20.008;2024-03-22T02:45:26;99420.36;;;10.39;55.05
84522;BME280;74758;50.066;20.008;2024-03-22T02:46:28;99423.83;;;10.40;55.03
84522;BME280;74758;50.066;20.008;2024-03-22T02:47:29;99426.25;;;10.41;55.13
84522;BME280;74758;50.066;20.008;2024-03-22T02:48:31;99423.98;;;10.42;55.33
84522;BME280;74758;50.066;20.008;2024-03-22T02:49:33;99422.90;;;10.43;55.35
84522;BME280;74758;50.066;20.008;2024-03-22T02:50:37;99422.48;;;10.43;55.59
84522;BME280;74758;50.066;20.008;2024-03-22T02:51:39;99421.55;;;10.44;55.68
84522;BME280;74758;50.066;20.008;2024-03-22T02:52:41;99422.35;;;10.45;55.94
84522;BME280;74758;50.066;20.008;2024-03-22T02:53:42;99421.25;;;10.47;55.74
84522;BME280;74758;50.066;20.008;2024-03-22T02:54:43;99419.06;;;10.49;55.98
84522;BME280;74758;50.066;20.008;2024-03-22T02:55:45;99420.23;;;10.50;55.79
84522;BME280;74758;50.066;20.008;2024-03-22T02:56:46;99421.98;;;10.50;55.84
84522;BME280;74758;50.066;20.008;2024-03-22T02:57:49;99419.95;;;10.51;55.91
84522;BME280;74758;50.066;20.008;2024-03-22T02:58:51;99420.62;;;10.51;56.04
84522;BME280;74758;50.066;20.008;2024-03-22T02:59:53;99424.40;;;10.52;56.10
84522;BME280;74758;50.066;20.008;2024-03-22T03:00:54;99419.66;;;10.52;56.16
84522;BME280;74758;50.066;20.008;2024-03-22T03:01:55;99417.21;;;10.52;56.21
84522;BME280;74758;50.066;20.008;2024-03-22T03:02:57;99418.19;;;10.53;56.26
84522;BME280;74758;50.066;20.008;2024-03-22T03:03:58;99418.02;;;10.55;56.12
84522;BME280;74758;50.066;20.008;2024-03-22T03:05:00;99416.30;;;10.56;56.50
84522;BME280;74758;50.066;20.008;2024-03-22T03:06:01;99422.37;;;10.59;56.52
84522;BME280;74758;50.066;20.008;2024-03-22T03:07:04;99420.23;;;10.61;56.55
84522;BME280;74758;50.066;20.008;2024-03-22T03:08:05;99421.44;;;10.64;56.71
84522;BME280;74758;50.066;20.008;2024-03-22T03:09:07;99420.91;;;10.66;56.68
84522;BME280;74758;50.066;20.008;2024-03-22T03:10:09;99422.72;;;10.67;57.01
84522;BME280;74758;50.066;20.008;2024-03-22T03:11:12;99422.86;;;10.67;56.81
84522;BME280;74758;50.066;20.008;2024-03-22T03:12:14;99423.83;;;10.68;56.88
84522;BME280;74758;50.066;20.008;2024-03-22T03:13:15;99424.11;;;10.69;56.97
84522;BME280;74758;50.066;20.008;2024-03-22T03:14:17;99429.12;;;10.70;56.99
84522;BME280;74758;50.066;20.008;2024-03-22T03:15:18;99423.81;;;10.70;57.18
84522;BME280;74758;50.066;20.008;2024-03-22T03:16:20;99428.84;;;10.71;57.16
84522;BME280;74758;50.066;20.008;2024-03-22T03:17:21;99424.77;;;10.72;57.24
84522;BME280;74758;50.066;20.008;2024-03-22T03:18:24;99424.81;;;10.73;57.45
84522;BME280;74758;50.066;20.008;2024-03-22T03:19:26;99420.98;;;10.73;57.17
84522;BME280;74758;50.066;20.008;2024-03-22T03:20:27;99424.20;;;10.74;57.53
84522;BME280;74758;50.066;20.008;2024-03-22T03:21:28;99419.98;;;10.74;57.33
84522;BME280;74758;50.066;20.008;2024-03-22T03:22:30;99420.99;;;10.74;57.56
84522;BME280;74758;50.066;20.008;2024-03-22T03:23:31;99424.58;;;10.76;57.70
84522;BME280;74758;50.066;20.008;2024-03-22T03:24:33;99422.25;;;10.76;57.64
84522;BME280;74758;50.066;20.008;2024-03-22T03:25:34;99420.77;;;10.77;57.82
84522;BME280;74758;50.066;20.008;2024-03-22T03:26:36;99417.77;;;10.77;58.02
84522;BME280;74758;50.066;20.008;2024-03-22T03:27:37;99417.69;;;10.78;57.87
84522;BME280;74758;50.066;20.008;2024-03-22T03:28:39;99416.42;;;10.78;57.89
84522;BME280;74758;50.066;20.008;2024-03-22T03:29:40;99418.73;;;10.80;58.23
84522;BME280;74758;50.066;20.008;2024-03-22T03:30:42;99414.51;;;10.80;57.80
84522;BME280;74758;50.066;20.008;2024-03-22T03:31:43;99411.34;;;10.80;58.01
84522;BME280;74758;50.066;20.008;2024-03-22T03:32:45;99411.18;;;10.80;58.17
84522;BME280;74758;50.066;20.008;2024-03-22T03:33:46;99410.17;;;10.81;58.30
84522;BME280;74758;50.066;20.008;2024-03-22T03:34:47;99407.59;;;10.81;58.40
84522;BME280;74758;50.066;20.008;2024-03-22T03:35:49;99409.65;;;10.82;58.45
84522;BME280;74758;50.066;20.008;2024-03-22T03:36:50;99408.27;;;10.81;58.52
84522;BME280;74758;50.066;20.008;2024-03-22T03:37:52;99412.46;;;10.84;58.47
84522;BME280;74758;50.066;20.008;2024-03-22T03:38:54;99411.52;;;10.84;58.48
84522;BME280;74758;50.066;20.008;2024-03-22T03:39:55;99409.48;;;10.85;58.57
84522;BME280;74758;50.066;20.008;2024-03-22T03:40:57;99406.21;;;10.86;58.79
84522;BME280;74758;50.066;20.008;2024-03-22T03:41:58;99403.71;;;10.87;58.84
84522;BME280;74758;50.066;20.008;2024-03-22T03:42:59;99402.94;;;10.88;58.84
84522;BME280;74758;50.066;20.008;2024-03-22T03:44:01;99402.19;;;10.87;58.92
84522;BME280;74758;50.066;20.008;2024-03-22T03:45:03;99405.55;;;10.86;59.13
84522;BME280;74758;50.066;20.008;2024-03-22T03:46:04;99410.38;;;10.85;59.07
84522;BME280;74758;50.066;20.008;2024-03-22T03:47:06;99409.71;;;10.85;59.01
84522;BME280;74758;50.066;20.008;2024-03-22T03:48:07;99406.27;;;10.84;59.17
84522;BME280;74758;50.066;20.008;2024-03-22T03:49:08;99409.95;;;10.84;59.33
84522;BME280;74758;50.066;20.008;2024-03-22T03:50:10;99410.65;;;10.84;59.27
84522;BME280;74758;50.066;20.008;2024-03-22T03:51:11;99407.10;;;10.83;59.48
84522;BME280;74758;50.066;20.008;2024-03-22T03:52:13;99408.98;;;10.81;59.54
84522;BME280;74758;50.066;20.008;2024-03-22T03:53:15;99406.90;;;10.81;59.64
84522;BME280;74758;50.066;20.008;2024-03-22T03:54:16;99403.62;;;10.80;59.65
84522;BME280;74758;50.066;20.008;2024-03-22T03:55:18;99404.26;;;10.79;59.64
84522;BME280;74758;50.066;20.008;2024-03-22T03:56:19;99403.06;;;10.78;59.82
84522;BME280;74758;50.066;20.008;2024-03-22T03:57:20;99403.32;;;10.77;59.83
84522;BME280;74758;50.066;20.008;2024-03-22T03:58:22;99404.73;;;10.77;59.86
84522;BME280;74758;50.066;20.008;2024-03-22T03:59:24;99400.63;;;10.76;59.96
84522;BME280;74758;50.066;20.008;2024-03-22T04:00:25;99401.48;;;10.74;59.91
84522;BME280;74758;50.066;20.008;2024-03-22T04:01:27;99400.02;;;10.71;60.03
84522;BME280;74758;50.066;20.008;2024-03-22T04:02:28;99405.44;;;10.71;60.16
84522;BME280;74758;50.066;20.008;2024-03-22T04:03:30;99404.10;;;10.71;60.20
84522;BME280;74758;50.066;20.008;2024-03-22T04:04:31;99406.60;;;10.70;60.44
84522;BME280;74758;50.066;20.008;2024-03-22T04:05:33;99404.69;;;10.70;60.44
84522;BME280;74758;50.066;20.008;2024-03-22T04:06:35;99406.27;;;10.70;60.18
84522;BME280;74758;50.066;20.008;2024-03-22T04:07:36;99407.10;;;10.71;60.37
84522;BME280;74758;50.066;20.008;2024-03-22T04:08:38;99409.27;;;10.72;60.45
84522;BME280;74758;50.066;20.008;2024-03-22T04:09:39;99406.16;;;10.71;60.53
84522;BME280;74758;50.066;20.008;2024-03-22T04:10:41;99407.61;;;10.71;60.38
84522;BME280;74758;50.066;20.008;2024-03-22T04:11:42;99407.88;;;10.70;60.60
84522;BME280;74758;50.066;20.008;2024-03-22T04:12:45;99408.13;;;10.69;60.61
84522;BME280;74758;50.066;20.008;2024-03-22T04:13:47;99411.95;;;10.67;60.54
84522;BME280;74758;50.066;20.008;2024-03-22T04:14:48;99409.90;;;10.67;60.85
84522;BME280;74758;50.066;20.008;2024-03-22T04:15:50;99411.67;;;10.67;60.99
84522;BME280;74758;50.066;20.008;2024-03-22T04:16:52;99411.48;;;10.67;60.87
84522;BME280;74758;50.066;20.008;2024-03-22T04:17:56;99411.31;;;10.65;60.86
84522;BME280;74758;50.066;20.008;2024-03-22T04:18:58;99412.80;;;10.64;61.06
84522;BME280;74758;50.066;20.008;2024-03-22T04:19:59;99411.95;;;10.64;61.05
84522;BME280;74758;50.066;20.008;2024-03-22T04:21:01;99414.33;;;10.62;61.04
84522;BME280;74758;50.066;20.008;2024-03-22T04:22:03;99409.63;;;10.62;61.07
84522;BME280;74758;50.066;20.008;2024-03-22T04:23:04;99412.80;;;10.62;61.40
84522;BME280;74758;50.066;20.008;2024-03-22T04:24:05;99409.49;;;10.61;61.08
84522;BME280;74758;50.066;20.008;2024-03-22T04:25:07;99410.94;;;10.61;61.29
84522;BME280;74758;50.066;20.008;2024-03-22T04:26:09;99407.84;;;10.60;61.26
84522;BME280;74758;50.066;20.008;2024-03-22T04:27:11;99407.16;;;10.60;61.20
84522;BME280;74758;50.066;20.008;2024-03-22T04:28:13;99410.35;;;10.60;61.37
84522;BME280;74758;50.066;20.008;2024-03-22T04:29:14;99405.97;;;10.60;61.43
84522;BME280;74758;50.066;20.008;2024-03-22T04:30:16;99411.40;;;10.60;61.47
84522;BME280;74758;50.066;20.008;2024-03-22T04:31:17;99412.27;;;10.60;61.49
84522;BME280;74758;50.066;20.008;2024-03-22T04:32:19;99412.91;;;10.61;61.42
84522;BME280;74758;50.066;20.008;2024-03-22T04:33:20;99412.71;;;10.61;61.87
84522;BME280;74758;50.066;20.008;2024-03-22T04:34:22;99411.21;;;10.60;61.50
84522;BME280;74758;50.066;20.008;2024-03-22T04:35:23;99413.90;;;10.59;61.69
84522;BME280;74758;50.066;20.008;2024-03-22T04:36:24;99412.37;;;10.59;61.70
84522;BME280;74758;50.066;20.008;2024-03-22T04:37:26;99413.29;;;10.58;62.01
84522;BME280;74758;50.066;20.008;2024-03-22T04:38:28;99410.91;;;10.57;62.03
84522;BME280;74758;50.066;20.008;2024-03-22T04:39:30;99415.67;;;10.57;62.25
84522;BME280;74758;50.066;20.008;2024-03-22T04:40:32;99412.45;;;10.56;62.18
84522;BME280;74758;50.066;20.008;2024-03-22T04:41:33;99415.86;;;10.55;62.26
84522;BME280;74758;50.066;20.008;2024-03-22T04:42:35;99419.13;;;10.54;62.41
84522;BME280;74758;50.066;20.008;2024-03-22T04:43:36;99417.98;;;10.53;62.63
84522;BME280;74758;50.066;20.008;2024-03-22T04:44:38;99420.73;;;10.52;62.30
84522;BME280;74758;50.066;20.008;2024-03-22T04:45:41;99417.02;;;10.50;62.69
84522;BME280;74758;50.066;20.008;2024-03-22T04:46:43;99413.81;;;10.48;62.50
84522;BME280;74758;50.066;20.008;2024-03-22T04:47:45;99415.17;;;10.47;62.54
84522;BME280;74758;50.066;20.008;2024-03-22T04:48:47;99416.12;;;10.46;62.54
84522;BME280;74758;50.066;20.008;2024-03-22T04:49:48;99416.19;;;10.45;62.93
84522;BME280;74758;50.066;20.008;2024-03-22T04:50:51;99417.49;;;10.44;63.11
84522;BME280;74758;50.066;20.008;2024-03-22T04:51:53;99422.58;;;10.44;63.14
84522;BME280;74758;50.066;20.008;2024-03-22T04:52:54;99415.58;;;10.44;63.20
84522;BME280;74758;50.066;20.008;2024-03-22T04:53:56;99418.21;;;10.44;62.99
84522;BME280;74758;50.066;20.008;2024-03-22T04:54:57;99419.02;;;10.45;63.04
84522;BME280;74758;50.066;20.008;2024-03-22T04:55:59;99421.98;;;10.45;63.00
84522;BME280;74758;50.066;20.008;2024-03-22T04:57:00;99420.80;;;10.45;63.11
84522;BME280;74758;50.066;20.008;2024-03-22T04:58:02;99420.96;;;10.45;63.30
84522;BME280;74758;50.066;20.008;2024-03-22T04:59:03;99417.30;;;10.44;63.30
84522;BME280;74758;50.066;20.008;2024-03-22T05:00:05;99421.73;;;10.44;63.09
84522;BME280;74758;50.066;20.008;2024-03-22T05:01:09;99420.96;;;10.43;63.35
84522;BME280;74758;50.066;20.008;2024-03-22T05:02:13;99420.90;;;10.44;63.69
84522;BME280;74758;50.066;20.008;2024-03-22T05:03:16;99422.29;;;10.42;63.55
84522;BME280;74758;50.066;20.008;2024-03-22T05:04:17;99424.97;;;10.41;63.69
84522;BME280;74758;50.066;20.008;2024-03-22T05:05:19;99428.23;;;10.40;63.67
84522;BME280;74758;50.066;20.008;2024-03-22T05:06:20;99426.04;;;10.39;63.94
84522;BME280;74758;50.066;20.008;2024-03-22T05:07:22;99423.64;;;10.38;64.06
84522;BME280;74758;50.066;20.008;2024-03-22T05:08:24;99426.79;;;10.36;63.95
84522;BME280;74758;50.066;20.008;2024-03-22T05:09:25;99423.20;;;10.35;64.21
84522;BME280;74758;50.066;20.008;2024-03-22T05:10:27;99422.83;;;10.33;64.50
84522;BME280;74758;50.066;20.008;2024-03-22T05:11:30;99424.57;;;10.32;64.48
84522;BME280;74758;50.066;20.008;2024-03-22T05:12:32;99426.82;;;10.32;64.24
84522;BME280;74758;50.066;20.008;2024-03-22T05:13:36;99421.83;;;10.33;64.54
84522;BME280;74758;50.066;20.008;2024-03-22T05:14:37;99425.98;;;10.34;64.66
84522;BME280;74758;50.066;20.008;2024-03-22T05:15:39;99426.58;;;10.35;64.64
84522;BME280;74758;50.066;20.008;2024-03-22T05:16:41;99427.20;;;10.36;64.66
84522;BME280;74758;50.066;20.008;2024-03-22T05:17:42;99425.48;;;10.37;64.54
84522;BME280;74758;50.066;20.008;2024-03-22T05:18:44;99427.04;;;10.37;64.60
84522;BME280;74758;50.066;20.008;2024-03-22T05:19:46;99423.17;;;10.37;64.72
84522;BME280;74758;50.066;20.008;2024-03-22T05:20:48;99426.09;;;10.38;64.82
84522;BME280;74758;50.066;20.008;2024-03-22T05:21:49;99425.40;;;10.38;65.02
84522;BME280;74758;50.066;20.008;2024-03-22T05:22:51;99428.71;;;10.38;65.04